Time;durP1;ratioP1;P1;durP2;ratioP2;P2;SDS_P1;SDS_P2;PMS_P1;PMS_P2;Temp;Humidity;BMP_temperature;BMP_pressure;BME280_temperature;BME280_humidity;BME280_pressure;Samples;Min_cycle;Max_cycle;Signal;HPM_P1;HPM_P2
2023/10/22 00:01:26;;;;;;;9.50;0.40;;;;;;;19.10;60.22;98588.47;5296192;26;20031;-95
2023/10/22 00:03:51;;;;;;;7.55;1.80;;;;;;;19.12;60.21;98575.16;5312396;26;20049;-96
2023/10/22 00:06:17;;;;;;;1.75;1.35;;;;;;;19.12;60.21;98565.44;5290178;26;20063;-95
2023/10/22 00:08:43;;;;;;;1.20;1.17;;;;;;;19.29;60.22;98550.81;5289738;26;20482;-96
2023/10/22 00:11:08;;;;;;;0.55;0.55;;;;;;;19.17;60.22;98544.81;5289741;26;20122;-96
2023/10/22 00:13:34;;;;;;;0.57;0.57;;;;;;;19.12;60.21;98544.34;5307906;26;20087;-96
2023/10/22 00:15:59;;;;;;;0.00;0.00;;;;;;;19.26;60.23;98546.63;5289701;26;20117;-96
2023/10/22 00:18:25;;;;;;;0.85;0.85;;;;;;;19.13;60.21;98538.09;5289114;26;20090;-95
2023/10/22 00:20:51;;;;;;;1.70;1.60;;;;;;;19.08;60.21;98548.22;5308209;26;20784;-96
2023/10/22 00:23:16;;;;;;;4.25;0.90;;;;;;;18.95;60.21;98553.72;5289875;26;20052;-96
2023/10/22 00:25:42;;;;;;;2.40;0.73;;;;;;;19.12;60.21;98554.06;5290288;26;20107;-95
2023/10/22 00:28:07;;;;;;;3.50;2.17;;;;;;;19.15;60.22;98556.44;5289475;26;20068;-95
2023/10/22 00:30:34;;;;;;;5.53;2.37;;;;;;;19.08;60.21;98553.50;5289364;26;20998;-95
2023/10/22 00:32:59;;;;;;;0.52;0.52;;;;;;;18.96;60.21;98567.75;5290017;26;20053;-96
2023/10/22 00:35:25;;;;;;;2.62;1.92;;;;;;;18.92;60.20;98555.75;5289237;26;20346;-95
2023/10/22 00:37:50;;;;;;;0.10;0.10;;;;;;;19.01;60.21;98557.62;5289446;26;20075;-94
2023/10/22 00:40:16;;;;;;;3.10;1.85;;;;;;;18.91;60.20;98554.94;5289533;26;20056;-95
2023/10/22 00:42:41;;;;;;;22.27;1.27;;;;;;;18.99;60.21;98562.19;5289069;26;20104;-95
2023/10/22 00:45:07;;;;;;;0.70;0.45;;;;;;;18.92;60.21;98559.22;5289092;26;20079;-95
2023/10/22 00:47:33;;;;;;;0.10;0.10;;;;;;;18.89;60.20;98553.37;5289904;26;20068;-94
2023/10/22 00:49:59;;;;;;;0.68;0.60;;;;;;;18.93;60.21;98549.56;5290396;26;20122;-95
2023/10/22 00:52:25;;;;;;;0.82;0.82;;;;;;;18.91;60.20;98559.38;5290277;26;20337;-95
2023/10/22 00:54:51;;;;;;;0.82;0.43;;;;;;;18.96;60.21;98559.84;5326983;26;20356;-94
2023/10/22 00:57:17;;;;;;;2.67;2.10;;;;;;;18.83;60.20;98560.03;5290376;26;20099;-94
2023/10/22 00:59:42;;;;;;;2.00;0.98;;;;;;;18.85;60.19;98550.19;5290685;26;20065;-96
2023/10/22 01:02:08;;;;;;;0.13;0.13;;;;;;;19.02;60.21;98544.31;5294538;26;20052;-96
2023/10/22 01:04:37;;;;;;;1.48;1.37;;;;;;;18.94;60.21;98543.31;5305061;26;20064;-96
2023/10/22 01:07:08;;;;;;;0.35;0.30;;;;;;;19.14;60.21;98558.22;5337045;26;20043;-96
2023/10/22 01:09:47;;;;;;;3.08;1.40;;;;;;;19.09;60.21;98559.59;5338327;26;20053;-96
2023/10/22 01:16:33;;;;;;;0.00;0.00;;;;;;;19.09;60.21;98551.69;5361179;26;20087;-96
2023/10/22 01:19:03;;;;;;;0.32;0.32;;;;;;;18.96;60.20;98555.41;5360015;26;20024;-96
2023/10/22 01:21:29;;;;;;;1.17;1.08;;;;;;;18.99;60.20;98549.03;5351038;26;20032;-96
2023/10/22 01:23:55;;;;;;;1.33;1.25;;;;;;;19.10;60.22;98556.84;5295030;26;20053;-96
2023/10/22 01:30:15;;;;;;;0.47;0.30;;;;;;;19.17;60.22;98551.88;5297759;26;20116;-96
2023/10/22 01:33:09;;;;;;;0.60;0.60;;;;;;;19.10;60.22;98543.66;5354146;26;20032;-96
2023/10/22 01:35:38;;;;;;;0.37;0.37;;;;;;;19.07;60.21;98543.91;5359907;26;20017;-96
2023/10/22 01:38:27;;;;;;;1.60;1.50;;;;;;;19.17;60.22;98547.44;5324877;26;20029;-96
2023/10/22 01:40:53;;;;;;;0.00;0.00;;;;;;;19.07;60.21;98541.28;5277173;26;20071;-95
2023/10/22 01:43:18;;;;;;;1.15;1.05;;;;;;;18.99;60.20;98549.84;5308670;26;20105;-95
2023/10/22 01:45:44;;;;;;;0.52;0.37;;;;;;;19.05;60.21;98553.75;5290188;26;20067;-96
2023/10/22 01:48:10;;;;;;;0.43;0.43;;;;;;;18.97;60.20;98556.22;5291022;26;20108;-96
2023/10/22 01:50:36;;;;;;;0.45;0.45;;;;;;;18.93;60.21;98560.09;5290393;26;20103;-96
2023/10/22 01:53:01;;;;;;;0.00;0.00;;;;;;;19.07;60.21;98561.53;5291170;26;20394;-95
2023/10/22 01:55:27;;;;;;;2.85;0.75;;;;;;;18.97;60.21;98561.50;5290556;26;20047;-96
2023/10/22 01:57:52;;;;;;;0.20;0.20;;;;;;;19.00;60.21;98555.97;5308873;26;20360;-96
2023/10/22 02:00:18;;;;;;;0.08;0.08;;;;;;;19.08;60.21;98560.56;5291410;26;20108;-96
2023/10/22 02:02:43;;;;;;;0.20;0.20;;;;;;;19.10;60.22;98559.47;5290266;26;20071;-95
2023/10/22 02:05:09;;;;;;;0.00;0.00;;;;;;;19.11;60.22;98555.88;5297801;26;20356;-95
2023/10/22 02:07:36;;;;;;;1.27;0.40;;;;;;;19.08;60.21;98555.28;5296830;26;20079;-95
2023/10/22 02:10:08;;;;;;;0.40;0.40;;;;;;;19.09;60.21;98556.97;5294821;26;20044;-96
2023/10/22 02:12:33;;;;;;;0.20;0.20;;;;;;;19.15;60.22;98559.06;5330398;26;20154;-96
2023/10/22 02:15:06;;;;;;;0.37;0.37;;;;;;;19.17;60.22;98560.63;5296264;26;20052;-96
2023/10/22 02:17:31;;;;;;;0.98;0.90;;;;;;;19.18;60.22;98558.84;5312401;26;20040;-96
2023/10/22 02:19:57;;;;;;;0.95;0.90;;;;;;;19.22;60.22;98553.16;5295901;26;20068;-95
2023/10/22 02:22:25;;;;;;;0.10;0.10;;;;;;;19.21;60.22;98555.94;5311805;26;20131;-96
2023/10/22 02:24:51;;;;;;;0.10;0.10;;;;;;;19.12;60.22;98556.69;5294310;26;20048;-96
2023/10/22 02:27:49;;;;;;;0.60;0.60;;;;;;;19.15;60.21;98552.00;5294717;26;20064;-96
2023/10/22 02:33:24;;;;;;;0.45;0.45;;;;;;;19.06;60.21;98555.44;5310829;26;21066;-96
2023/10/22 02:38:45;;;;;;;0.30;0.30;;;;;;;19.37;60.22;98548.31;5306510;27;20050;-95
2023/10/22 02:41:10;;;;;;;0.45;0.45;;;;;;;19.27;60.22;98548.31;5287666;27;20077;-96
2023/10/22 02:43:37;;;;;;;0.75;0.75;;;;;;;19.04;60.21;98546.81;5288381;27;20136;-95
2023/10/22 02:46:04;;;;;;;0.20;0.20;;;;;;;19.12;60.21;98536.44;5308941;27;20044;-96
2023/10/22 02:48:29;;;;;;;1.12;0.93;;;;;;;18.99;60.20;98539.31;5306827;27;20417;-95
2023/10/22 02:50:55;;;;;;;0.00;0.00;;;;;;;19.39;60.24;98527.91;5283331;27;20175;-94
2023/10/22 02:53:20;;;;;;;0.00;0.00;;;;;;;19.21;60.22;98533.03;5283729;27;20100;-94
2023/10/22 02:55:46;;;;;;;0.60;0.60;;;;;;;19.20;60.22;98536.63;5283340;27;20071;-95
2023/10/22 02:58:11;;;;;;;0.15;0.15;;;;;;;19.17;60.22;98539.53;5301679;26;20129;-96
2023/10/22 03:00:37;;;;;;;0.37;0.37;;;;;;;18.96;60.21;98530.81;5306297;26;20111;-94
2023/10/22 03:03:03;;;;;;;0.40;0.37;;;;;;;19.05;60.21;98542.38;5305946;26;23332;-94
2023/10/22 03:05:32;;;;;;;0.03;0.03;;;;;;;18.88;60.20;98544.66;5287954;26;20048;-93
2023/10/22 03:07:58;;;;;;;2.40;0.88;;;;;;;18.91;60.20;98547.00;5307665;26;20133;-95
2023/10/22 03:10:23;;;;;;;0.70;0.60;;;;;;;18.94;60.20;98544.16;5306417;26;20096;-94
2023/10/22 03:12:49;;;;;;;0.82;0.50;;;;;;;19.11;60.21;98544.47;5306232;26;20100;-93
2023/10/22 03:15:14;;;;;;;0.00;0.00;;;;;;;19.02;60.21;98544.31;5306161;26;20110;-95
2023/10/22 03:17:40;;;;;;;0.00;0.00;;;;;;;18.87;60.20;98548.25;5270334;27;20064;-94
2023/10/22 03:20:06;;;;;;;0.30;0.30;;;;;;;18.94;60.21;98553.84;5265983;27;20526;-95
2023/10/22 03:22:31;;;;;;;3.28;0.95;;;;;;;18.94;60.20;98559.13;5266709;27;20116;-94
2023/10/22 03:24:56;;;;;;;0.37;0.37;;;;;;;18.91;60.20;98557.56;5266771;27;20400;-94
2023/10/22 03:27:22;;;;;;;2.53;1.60;;;;;;;18.97;60.20;98551.78;5285054;27;21255;-93
2023/10/22 03:29:47;;;;;;;1.42;0.50;;;;;;;19.10;60.21;98540.16;5267173;27;20080;-94
2023/10/22 03:32:13;;;;;;;2.45;1.65;;;;;;;19.00;60.20;98550.69;5267158;27;20104;-93
2023/10/22 03:34:38;;;;;;;2.83;1.17;;;;;;;18.98;60.21;98553.47;5284740;27;20398;-94
2023/10/22 03:37:08;;;;;;;1.87;1.17;;;;;;;19.08;60.21;98558.75;5266891;27;20163;-92
2023/10/22 03:39:34;;;;;;;;;;;;;;;19.12;60.21;98557.53;5268826;27;20418;-93
2023/10/22 03:41:59;;;;;;;0.60;0.60;;;;;;;19.13;60.21;98561.84;5303600;27;19974;-93
2023/10/22 03:44:25;;;;;;;7.30;2.17;;;;;;;19.21;60.22;98562.03;5266948;27;20096;-94
2023/10/22 03:46:50;;;;;;;0.70;0.70;;;;;;;19.25;60.22;98558.16;5284641;27;20057;-91
2023/10/22 03:49:16;;;;;;;1.83;1.17;;;;;;;19.25;60.22;98555.53;5266366;27;20070;-93
2023/10/22 03:51:41;;;;;;;0.88;0.80;;;;;;;19.40;60.23;98561.28;5284351;27;20057;-92
2023/10/22 03:54:07;;;;;;;0.95;0.88;;;;;;;19.28;60.22;98572.88;5266218;27;20446;-92
2023/10/22 03:56:34;;;;;;;0.95;0.95;;;;;;;19.33;60.23;98578.59;5267058;27;20075;-93
2023/10/22 03:59:00;;;;;;;2.20;1.62;;;;;;;19.34;60.24;98585.53;5267894;27;20127;-94
2023/10/22 04:01:25;;;;;;;0.93;0.43;;;;;;;19.28;60.23;98588.72;5267266;27;20317;-95
2023/10/22 04:03:51;;;;;;;2.03;1.77;;;;;;;19.47;60.24;98601.16;5267167;27;20096;-94
2023/10/22 04:06:16;;;;;;;0.22;0.22;;;;;;;19.15;60.22;98596.00;5267500;27;20399;-94
2023/10/22 04:08:41;;;;;;;0.32;0.32;;;;;;;18.87;60.20;98600.16;5268027;27;20076;-95
2023/10/22 04:11:09;;;;;;;0.88;0.88;;;;;;;18.95;60.21;98597.72;5274903;27;20092;-96
2023/10/22 04:13:35;;;;;;;0.05;0.05;;;;;;;18.87;60.21;98600.16;5324364;27;21164;-96
2023/10/22 04:16:00;;;;;;;0.40;0.40;;;;;;;18.91;60.20;98597.13;5267489;26;20065;-96
2023/10/22 04:18:26;;;;;;;1.75;0.62;;;;;;;18.82;60.20;98619.00;5268041;27;20419;-96
2023/10/22 04:24:00;;;;;;;0.15;0.15;;;;;;;19.00;60.20;98645.63;5381136;26;20064;-96
2023/10/22 04:29:21;;;;;;;0.00;0.00;;;;;;;18.62;60.20;98644.37;5366720;26;20097;-96
2023/10/22 04:31:57;;;;;;;0.00;0.00;;;;;;;18.44;60.18;98643.22;5358541;26;20071;-95
2023/10/22 04:34:22;;;;;;;0.10;0.10;;;;;;;18.42;60.18;98643.34;5349090;26;20062;-95
2023/10/22 04:36:52;;;;;;;0.35;0.28;;;;;;;18.50;60.18;98642.72;5318405;26;20060;-95
2023/10/22 04:39:18;;;;;;;0.62;0.62;;;;;;;18.24;60.17;98655.41;5353568;26;20087;-96
2023/10/22 04:41:43;;;;;;;0.00;0.00;;;;;;;18.35;60.17;98667.69;5312604;26;20107;-95
2023/10/22 04:44:09;;;;;;;3.70;1.37;;;;;;;18.32;60.18;98662.66;5312401;26;20057;-94
2023/10/22 04:46:34;;;;;;;15.02;0.65;;;;;;;18.23;60.17;98666.06;5312306;26;20074;-93
2023/10/22 04:49:00;;;;;;;0.30;0.30;;;;;;;18.20;60.16;98669.75;5311407;26;20064;-94
2023/10/22 04:51:32;;;;;;;0.13;0.13;;;;;;;18.20;60.17;98668.91;5330128;26;20096;-96
2023/10/22 04:54:18;;;;;;;1.35;0.35;;;;;;;18.16;60.17;98664.84;5381143;26;20031;-96
2023/10/22 04:57:03;;;;;;;0.00;0.00;;;;;;;17.92;60.15;98680.81;5362810;26;20033;-96
2023/10/22 05:00:11;;;;;;;0.10;0.10;;;;;;;18.08;60.15;98678.66;5335797;27;20195;-96
2023/10/22 05:02:44;;;;;;;0.00;0.00;;;;;;;18.03;60.16;98683.44;5325396;27;20305;-96
2023/10/22 05:05:25;;;;;;;0.65;0.17;;;;;;;18.05;60.16;98686.78;5289577;27;20048;-95
2023/10/22 05:07:50;;;;;;;;;;;;;;;18.14;60.16;98693.09;5274361;27;20053;-96
2023/10/22 05:10:50;;;;;;;0.00;0.00;;;;;;;18.23;60.17;98698.50;5309548;27;20165;-92
2023/10/22 05:17:30;;;;;;;;;;;;;;;;;;;;;
2023/10/22 05:57:28;;;;;;;;;;;;;;;;;;;;;
2023/10/22 07:10:43;;;;;;;0.00;0.00;;;;;;;18.72;60.19;98910.72;5345889;26;20070;-95
2023/10/22 07:17:04;;;;;;;2.85;0.75;;;;;;;18.75;60.19;98941.28;5260112;27;20068;-96
2023/10/22 07:20:12;;;;;;;0.00;0.00;;;;;;;18.62;60.18;98941.34;5283231;27;20053;-95
2023/10/22 07:26:28;;;;;;;;;;;;;;;;;;;;;
2023/10/22 07:29:41;;;;;;;0.10;0.10;;;;;;;18.38;60.17;98950.19;5300156;27;20037;-95
2023/10/22 07:32:53;;;;;;;0.40;0.10;;;;;;;18.28;60.17;98954.50;5300348;27;20075;-95
2023/10/22 07:35:57;;;;;;;1.65;0.40;;;;;;;18.25;60.18;98960.00;5273599;27;20065;-94
2023/10/22 07:39:21;;;;;;;0.40;0.40;;;;;;;18.39;60.17;98961.56;5281697;27;20057;-96
2023/10/22 07:41:46;;;;;;;0.10;0.10;;;;;;;18.34;60.17;98967.19;5290902;27;20107;-95
2023/10/22 07:44:34;;;;;;;0.00;0.00;;;;;;;18.48;60.18;98974.06;5281236;27;20075;-96
2023/10/22 07:47:35;;;;;;;;;;;;;;;;;;;;;
2023/10/22 07:53:36;;;;;;;0.43;0.35;;;;;;;18.34;60.17;99004.09;5255453;27;20068;-94
2023/10/22 08:00:04;;;;;;;;;;;;;;;18.39;60.19;99009.00;5191568;27;20082;-95
2023/10/22 08:03:19;;;;;;;0.00;0.00;;;;;;;18.30;60.17;99012.34;5161273;27;19977;-95
2023/10/22 08:06:03;;;;;;;0.55;0.40;;;;;;;18.32;60.18;99027.06;5185743;27;20085;-93
2023/10/22 08:08:59;;;;;;;;;;;;;;;;;;;;;
2023/10/22 08:11:38;;;;;;;0.00;0.00;;;;;;;18.40;60.18;99037.03;5260021;27;36360;-95
2023/10/22 08:14:53;;;;;;;0.43;0.13;;;;;;;18.55;60.19;99037.66;5266975;27;20056;-94
2023/10/22 08:17:56;;;;;;;0.00;0.00;;;;;;;18.24;60.17;99032.09;5263219;27;20070;-94
2023/10/22 08:21:07;;;;;;;;;;;;;;;;;;;;;
2023/10/22 08:31:45;;;;;;;0.00;0.00;;;;;;;18.85;60.19;99042.41;5206779;27;20833;-95
2023/10/22 08:35:06;;;;;;;;;;;;;;;;;;;;;
2023/10/22 08:45:38;;;;;;;0.00;0.00;;;;;;;19.13;60.22;99056.94;5192127;27;20054;-96
2023/10/22 09:06:08;;;;;;;;;;;;;;;;;;;;;
2023/10/22 09:09:07;;;;;;;0.00;0.00;;;;;;;19.22;60.22;99099.28;4988365;28;35111;-95
2023/10/22 09:12:38;;;;;;;;;;;;;;;;;;;;;
2023/10/22 09:25:35;;;;;;;0.10;0.10;;;;;;;18.99;60.20;99130.06;4996444;28;20036;-96
2023/10/22 09:32:40;;;;;;;;;;;;;;;;;;;;;
2023/10/22 10:18:55;;;;;;;0.10;0.10;;;;;;;19.06;60.21;99192.91;5301456;26;20061;-96
2023/10/22 10:33:22;;;;;;;;;;;;;;;;;;;;;
2023/10/22 10:40:19;;;;;;;0.00;0.00;;;;;;;18.57;60.20;99222.91;5098359;28;20154;-96
2023/10/22 10:51:05;;;;;;;;;;;;;;;;;;;;;
2023/10/22 10:54:17;;;;;;;;;;;;;;;;;;;;;
2023/10/22 11:20:47;;;;;;;0.00;0.00;;;;;;;19.16;60.22;99234.28;5053246;26;8348591;-96
2023/10/22 11:23:55;;;;;;;;;;;;;;;;;;;;;
2023/10/22 11:27:11;;;;;;;0.00;0.00;;;;;;;18.70;60.20;99231.63;5335775;26;20060;-96
2023/10/22 11:29:59;;;;;;;0.00;0.00;;;;;;;18.94;60.22;99228.97;5337593;27;20035;-96
2023/10/22 11:33:07;;;;;;;0.00;0.00;;;;;;;19.06;60.22;99227.19;5322124;27;20058;-96
2023/10/22 11:39:55;;;;;;;0.00;0.00;;;;;;;18.89;60.21;99231.09;5263789;26;20025;-95
2023/10/22 11:43:06;;;;;;;;;;;;;;;;;;;;;
2023/10/22 11:46:39;;;;;;;0.20;0.20;;;;;;;19.28;60.22;99228.09;5295260;27;36400;-96
2023/10/22 11:50:15;;;;;;;0.00;0.00;;;;;;;19.46;60.23;99241.69;5296363;27;20033;-96
2023/10/22 12:02:49;;;;;;;0.00;0.00;;;;;;;19.86;60.27;99241.25;5267449;27;20034;-96
2023/10/22 12:06:24;;;;;;;0.05;0.05;;;;;;;19.99;60.27;99247.28;5276672;27;20049;-96
2023/10/22 12:09:42;;;;;;;;;;;;;;;;;;;;;
2023/10/22 12:20:37;;;;;;;;;;;;;;;;;;;;;
2023/10/22 12:25:53;;;;;;;;;;;;;;;;;;;;;
2023/10/22 12:32:13;;;;;;;0.00;0.00;;;;;;;19.98;60.27;99255.31;5128086;27;20059;-96
2023/10/22 12:38:12;;;;;;;0.00;0.00;;;;;;;19.86;60.27;99273.78;5360515;26;20671;-95
2023/10/22 12:41:23;;;;;;;0.08;0.03;;;;;;;19.75;60.25;99276.44;5355505;26;20043;-95
2023/10/22 12:44:27;;;;;;;;;;;;;;;;;;;;;
2023/10/22 12:47:40;;;;;;;;;;;;;;;;;;;;;
2023/10/22 12:50:22;;;;;;;0.00;0.00;;;;;;;20.07;60.26;99279.22;5385451;26;35386;-95
2023/10/22 12:59:24;;;;;;;;;;;;;;;;;;;;;
2023/10/22 13:02:30;;;;;;;;;;;;;;;;;;;;;
2023/10/22 13:05:28;;;;;;;0.00;0.00;;;;;;;19.91;60.26;99292.78;5404485;26;35653;-96
2023/10/22 13:08:19;;;;;;;0.13;0.13;;;;;;;19.94;60.27;99294.34;5327917;26;20062;-96
2023/10/22 13:11:51;;;;;;;0.00;0.00;;;;;;;20.01;60.27;99300.84;5358264;26;20073;-96
2023/10/22 13:15:05;;;;;;;0.00;0.00;;;;;;;19.98;60.27;99308.16;5330396;27;20723;-96
2023/10/22 13:18:12;;;;;;;0.00;0.00;;;;;;;19.74;60.25;99303.81;5309228;27;20058;-96
2023/10/22 13:21:24;;;;;;;;;;;;;;;;;;;;;
2023/10/22 13:24:28;;;;;;;0.00;0.00;;;;;;;20.20;60.27;99284.37;5292447;26;35794;-96
2023/10/22 13:27:16;;;;;;;0.00;0.00;;;;;;;20.11;60.28;99287.72;5336363;26;20025;-96
2023/10/22 13:29:59;;;;;;;0.00;0.00;;;;;;;20.20;60.28;99287.03;5345412;26;20330;-96
2023/10/22 13:32:51;;;;;;;0.00;0.00;;;;;;;20.21;60.28;99299.28;5335603;26;20032;-96
2023/10/22 13:36:03;;;;;;;0.00;0.00;;;;;;;20.18;60.28;99300.37;5357870;26;20470;-96
2023/10/22 13:38:39;;;;;;;0.00;0.00;;;;;;;20.29;60.28;99299.50;5374098;26;20671;-96
2023/10/22 13:41:23;;;;;;;0.05;0.00;;;;;;;19.93;60.26;99311.16;5367541;26;20028;-96
2023/10/22 13:44:18;;;;;;;0.00;0.00;;;;;;;19.84;60.26;99307.41;5386645;26;20051;-96
2023/10/22 13:47:08;;;;;;;0.22;0.22;;;;;;;19.76;60.25;99306.34;5390272;26;20028;-96
2023/10/22 13:50:03;;;;;;;0.00;0.00;;;;;;;19.67;60.25;99313.19;5385584;26;20015;-96
2023/10/22 13:52:43;;;;;;;0.00;0.00;;;;;;;19.63;60.25;99312.53;5404778;26;20063;-96
2023/10/22 13:55:44;;;;;;;0.00;0.00;;;;;;;19.74;60.25;99319.66;5353068;26;20072;-96
2023/10/22 14:04:12;;;;;;;0.65;0.25;;;;;;;19.62;60.25;99339.06;5402922;26;20062;-95
2023/10/22 14:07:09;;;;;;;0.00;0.00;;;;;;;19.57;60.25;99339.41;5339477;26;20032;-96
2023/10/22 14:09:56;;;;;;;0.00;0.00;;;;;;;19.65;60.25;99346.78;5385138;26;20098;-95
2023/10/22 14:13:04;;;;;;;0.00;0.00;;;;;;;19.60;60.25;99352.38;5377061;26;20039;-96
2023/10/22 14:15:52;;;;;;;;;;;;;;;;;;;;;
2023/10/22 14:18:30;;;;;;;0.00;0.00;;;;;;;19.79;60.26;99358.91;5382002;26;35038;-95
2023/10/22 14:21:22;;;;;;;0.10;0.10;;;;;;;19.95;60.27;99348.03;5381120;26;20064;-96
2023/10/22 14:24:03;;;;;;;0.00;0.00;;;;;;;20.02;60.27;99346.59;5383860;26;20032;-96
2023/10/22 14:30:07;;;;;;;0.00;0.00;;;;;;;19.92;60.26;99352.59;5367070;26;20047;-95
2023/10/22 14:33:23;;;;;;;0.00;0.00;;;;;;;19.85;60.26;99353.16;5361560;26;20149;-96
2023/10/22 14:36:28;;;;;;;0.00;0.00;;;;;;;19.78;60.25;99354.59;5295570;27;20151;-96
2023/10/22 14:39:27;;;;;;;;;;;;;;;;;;;;;
2023/10/22 14:42:15;;;;;;;0.00;0.00;;;;;;;19.68;60.25;99358.91;5312038;27;36313;-96
2023/10/22 14:45:24;;;;;;;0.00;0.00;;;;;;;19.59;60.25;99365.69;5313789;27;20124;-96
2023/10/22 14:48:04;;;;;;;0.00;0.00;;;;;;;19.65;60.26;99381.09;5350502;26;20034;-96
2023/10/22 14:50:34;;;;;;;0.20;0.20;;;;;;;19.41;60.25;99382.91;5372344;26;20115;-96
2023/10/22 14:53:41;;;;;;;0.00;0.00;;;;;;;19.37;60.24;99389.34;5354847;26;20059;-96
2023/10/22 14:56:48;;;;;;;0.00;0.00;;;;;;;19.22;60.23;99391.34;5356360;26;20049;-95
2023/10/22 14:59:20;;;;;;;0.00;0.00;;;;;;;19.26;60.24;99404.19;5372998;26;20106;-96
2023/10/22 15:01:50;;;;;;;0.00;0.00;;;;;;;19.27;60.23;99397.94;5348840;26;20078;-95
2023/10/22 15:11:20;;;;;;;0.00;0.00;;;;;;;18.97;60.22;99406.31;5297715;27;20053;-95
2023/10/22 15:13:46;;;;;;;0.80;0.57;;;;;;;18.82;60.21;99411.81;5263068;27;20072;-95
2023/10/22 15:16:23;;;;;;;0.00;0.00;;;;;;;18.75;60.20;99407.94;5262244;27;20061;-93
2023/10/22 20:09:49;;;;;;;0.32;0.32;;;;;;;13.64;59.93;99645.28;5377222;26;20034;-96
2023/10/22 21:31:30;;;;;;;0.00;0.00;;;;;;;13.59;59.93;99676.03;5267684;26;20029;-92
2023/10/22 21:39:53;;;;;;;0.00;0.00;;;;;;;13.84;59.94;99687.06;5262633;26;19961;-96
2023/10/22 22:36:13;;;;;;;0.00;0.00;;;;;;;13.88;59.95;99708.69;5295779;26;20086;-96
